createdAt,value
2024-03-09T00:03:38.269Z,1012.2854689180905
2024-03-09T00:11:14.064Z,1012.2781842819471
2024-03-09T00:16:22.191Z,1012.2237817754576
2024-03-09T00:19:41.964Z,1012.1939093701427
2024-03-09T00:23:04.634Z,1012.1831956896539
2024-03-09T00:26:27.267Z,1012.1530149645201
2024-03-09T00:29:47.261Z,1012.0901208819142
2024-03-09T00:38:55.985Z,1011.9810767448726
2024-03-09T00:42:15.720Z,1011.9564758961889
2024-03-09T00:45:36.437Z,1011.9467302188793
2024-03-09T00:50:14.570Z,1011.8676154747931
2024-03-09T00:53:35.227Z,1011.8205345357901
2024-03-09T00:58:26.089Z,1011.7429178792971
2024-03-09T01:01:46.525Z,1011.6804809666143
2024-03-09T01:07:47.518Z,1011.6258510698706
2024-03-09T01:11:07.714Z,1011.5962582724206
2024-03-09T01:14:28.531Z,1011.5503837681272
2024-03-09T01:17:49.750Z,1011.5073753406583
2024-03-09T01:25:26.064Z,1011.4071937736937
2024-03-09T01:28:46.411Z,1011.4052737399962
2024-03-09T01:32:05.941Z,1011.4094219394048
2024-03-09T01:36:11.214Z,1011.364173131081
2024-03-09T01:46:53.807Z,1011.24046150566
2024-03-09T01:58:46.065Z,1011.1913141233488
2024-03-09T02:02:05.511Z,1011.1164918550436
2024-03-09T02:05:44.653Z,1011.0558401013708
2024-03-09T02:09:04.228Z,1011.0598139064862
2024-03-09T02:13:59.838Z,1010.9802224025472
2024-03-09T02:17:20.220Z,1010.8755040907822
2024-03-09T02:20:40.115Z,1010.7884282258167
2024-03-09T02:24:00.681Z,1010.7217833515249
2024-03-09T02:27:20.965Z,1010.6921189536494
2024-03-09T02:30:41.408Z,1010.6718877263614
2024-03-09T02:34:01.680Z,1010.636432344314
2024-03-09T02:37:22.681Z,1010.5845498183319
2024-03-09T02:40:44.736Z,1010.5439353346056
2024-03-09T02:45:46.068Z,1010.4683635494109
2024-03-09T02:49:05.984Z,1010.4664902358028
2024-03-09T02:52:26.706Z,1010.4386948663521
2024-03-09T02:55:46.762Z,1010.400992683193
2024-03-09T02:59:07.173Z,1010.3834470479464
2024-03-09T03:03:11.135Z,1010.3038416370674
2024-03-09T03:06:31.278Z,1010.2289500422045
2024-03-09T03:09:59.242Z,1010.1915110830766
2024-03-09T03:14:10.866Z,1010.1498609219515
2024-03-09T03:18:35.199Z,1010.0629502134996
2024-03-09T03:21:54.727Z,1010.0134007496738
2024-03-09T03:25:14.382Z,1009.9753709887818
2024-03-09T03:28:35.719Z,1009.9669767653808
2024-03-09T03:34:29.501Z,1009.9418052705937
2024-03-09T03:41:02.938Z,1009.8886260152742
2024-03-09T03:44:23.494Z,1009.8915352150427
2024-03-09T03:47:43.371Z,1009.9269279620855
2024-03-09T03:53:11.616Z,1009.9512401509513
2024-03-09T03:56:48.166Z,1009.9430928263843
2024-03-09T04:00:07.714Z,1009.9212145903718
2024-03-09T04:03:28.698Z,1009.929306377812
2024-03-09T04:06:48.350Z,1009.9247001030623
2024-03-09T04:21:56.168Z,1009.8672155168971
2024-03-09T04:25:17.220Z,1009.8363826404138
2024-03-09T04:28:37.934Z,1009.8014613346677
2024-03-09T04:38:17.697Z,1009.7046176866921
2024-03-09T04:41:37.920Z,1009.6451170253162
2024-03-09T04:44:57.477Z,1009.5590051110781
2024-03-09T05:09:20.374Z,1009.4163744465267
2024-03-09T05:12:40.608Z,1009.402556629654
2024-03-09T05:16:13.370Z,1009.4149313204128
2024-03-09T05:28:51.305Z,1009.3242175182315
2024-03-09T05:32:10.757Z,1009.2825434431828
2024-03-09T05:35:31.104Z,1009.2879911661754
2024-03-09T05:38:50.448Z,1009.2829461543666
2024-03-09T05:42:10.549Z,1009.2394237712457
2024-03-09T05:45:31.586Z,1009.2172867830124
2024-03-09T05:48:51.559Z,1009.2070828617777
2024-03-09T05:52:11.487Z,1009.2092110633869
2024-03-09T05:55:32.073Z,1009.2182433795494
2024-03-09T05:58:52.247Z,1009.2374504728039
2024-03-09T06:04:12.646Z,1009.2308680276733
2024-03-09T06:10:13.176Z,1009.2429128518129
2024-03-09T06:13:33.359Z,1009.1905528635658
2024-03-09T06:17:39.682Z,1009.163232116293
2024-03-09T06:20:59.607Z,1009.17872754223
2024-03-09T06:24:19.433Z,1009.2290663338613
2024-03-09T06:27:40.176Z,1009.269496677328
2024-03-09T06:31:14.402Z,1009.3253274373748
2024-03-09T06:34:34.869Z,1009.3791405867595
2024-03-09T06:37:54.648Z,1009.3998272358854
2024-03-09T06:41:26.305Z,1009.3676462720293
2024-03-09T06:46:37.190Z,1009.3961542844237
2024-03-09T06:56:16.629Z,1009.3395125141344
2024-03-09T07:00:24.898Z,1009.3230256416949
2024-03-09T07:03:44.366Z,1009.3270944138868
2024-03-09T07:08:56.209Z,1009.3106501637933
2024-03-09T07:14:15.301Z,1009.2644324744989
2024-03-09T07:17:36.351Z,1009.2189360830723
2024-03-09T07:22:46.901Z,1009.2143760943028
2024-03-09T07:26:06.241Z,1009.2172957736818
2024-03-09T07:29:26.240Z,1009.1967047489949
2024-03-09T07:32:46.880Z,1009.1232300555816
2024-03-09T07:36:07.000Z,1009.0570260479633
2024-03-09T07:39:27.274Z,1009.0307705319274
2024-03-09T07:42:47.231Z,1009.0414132557665
2024-03-09T07:46:07.378Z,1009.0719582974274
2024-03-09T07:49:28.463Z,1009.038711744362
2024-03-09T07:52:48.938Z,1008.9672781171834
2024-03-09T07:56:11.223Z,1008.932245498487
2024-03-09T08:08:05.066Z,1008.8957860756972
2024-03-09T08:21:35.553Z,1008.8028499899708
2024-03-09T08:24:56.904Z,1008.8184980921218
2024-03-09T08:28:17.511Z,1008.7265467102807
2024-03-09T08:39:51.976Z,1008.6602559495714
2024-03-09T08:43:11.704Z,1008.6405183787707
2024-03-09T08:46:31.992Z,1008.6126488934505
2024-03-09T08:49:52.075Z,1008.5632425818139
2024-03-09T08:53:13.209Z,1008.4937061300598
2024-03-09T08:59:49.673Z,1008.4022645714531
2024-03-09T09:03:09.736Z,1008.3720989359389
2024-03-09T09:06:30.364Z,1008.3047078500266
2024-03-09T09:17:37.898Z,1008.168723261361
2024-03-09T09:20:57.986Z,1008.1064294734341
2024-03-09T09:27:11.224Z,1007.9569272366958
2024-03-09T09:31:45.037Z,1007.8806087701627
2024-03-09T09:35:04.481Z,1007.8502040702505
2024-03-09T09:38:24.447Z,1007.8111775789041
2024-03-09T09:41:44.609Z,1007.810165734886
2024-03-09T09:45:04.262Z,1007.7950775485782
2024-03-09T09:48:24.229Z,1007.7933066590639
2024-03-09T09:51:47.182Z,1007.8397095188496
2024-03-09T09:56:57.010Z,1007.7922681338582
2024-03-09T10:01:46.640Z,1007.7145962485207
2024-03-09T10:05:06.608Z,1007.6845693793607
2024-03-09T10:08:26.783Z,1007.652577724947
2024-03-09T10:11:47.687Z,1007.6174610408796
2024-03-09T10:15:06.977Z,1007.6070486400265
2024-03-09T10:18:28.089Z,1007.5975402696637
2024-03-09T10:22:25.684Z,1007.6256978824639
2024-03-09T10:27:53.378Z,1007.6426381576887
2024-03-09T10:35:17.673Z,1007.5511829647776
2024-03-09T10:43:43.275Z,1007.4548311566058
2024-03-09T10:48:48.465Z,1007.4090695637395
2024-03-09T10:52:08.339Z,1007.4609464106284
2024-03-09T10:55:29.523Z,1007.4320443392944
2024-03-09T11:02:08.672Z,1007.374398565546
2024-03-09T11:05:29.403Z,1007.388265759547
2024-03-09T11:08:49.565Z,1007.3390352801609
2024-03-09T11:12:09.632Z,1007.293892370068
2024-03-09T11:17:22.299Z,1007.2901802837278
2024-03-09T11:20:42.211Z,1007.2339450368297
2024-03-09T11:24:02.185Z,1007.2159013784546
2024-03-09T11:27:22.356Z,1007.1662358077061
2024-03-09T11:37:45.800Z,1007.0828677222497
2024-03-09T11:41:05.815Z,1007.0420491360471
2024-03-09T11:44:46.207Z,1007.0223953216677
2024-03-09T11:48:12.223Z,1006.992584854784
2024-03-09T11:52:07.230Z,1006.9556337448888
2024-03-09T11:55:44.664Z,1006.9021121784683
2024-03-09T11:59:25.566Z,1006.9165519164893
2024-03-09T12:03:36.976Z,1006.8523886482205
2024-03-09T12:07:25.468Z,1006.8257887905454
2024-03-09T12:16:37.381Z,1006.754268618572
2024-03-09T12:19:57.850Z,1006.6591676033024
2024-03-09T12:23:18.886Z,1006.5727526075552
2024-03-09T12:29:17.725Z,1006.5159053269392
2024-03-09T12:32:39.380Z,1006.5063740880154
2024-03-09T12:36:00.696Z,1006.5235551204067
2024-03-09T12:39:22.232Z,1006.522428159445
2024-03-09T12:42:45.330Z,1006.5181386425537
2024-03-09T12:47:40.999Z,1006.4876118416096
2024-03-09T12:51:01.284Z,1006.4813634833266
2024-03-09T12:54:22.413Z,1006.4318810345102
2024-03-09T12:57:42.843Z,1006.397685691266
2024-03-09T13:01:03.888Z,1006.3275328852208
2024-03-09T13:04:28.609Z,1006.3061172379745
2024-03-09T13:07:57.029Z,1006.3542193606837
2024-03-09T13:11:19.790Z,1006.4337373420593
2024-03-09T13:14:49.756Z,1006.4388028431624
2024-03-09T13:18:11.673Z,1006.4776437868583
2024-03-09T13:21:35.819Z,1006.4012543525355
2024-03-09T13:32:06.458Z,1006.3765514441029
2024-03-09T13:35:27.480Z,1006.3884609040653
2024-03-09T13:38:49.764Z,1006.3587440484646
2024-03-09T13:42:11.576Z,1006.3620242415207
2024-03-09T13:45:33.007Z,1006.34249389872
2024-03-09T13:48:56.076Z,1006.3057274491075
2024-03-09T13:52:19.641Z,1006.2714880220108
2024-03-09T13:55:44.657Z,1006.1902303032647
2024-03-09T13:59:08.810Z,1006.0701361327569
2024-03-09T14:02:36.503Z,1006.0883605601924
2024-03-09T14:06:00.493Z,1006.10235252111
2024-03-09T14:14:40.659Z,1006.0358021932814
2024-03-09T14:18:05.663Z,1005.9380250027712
2024-03-09T14:21:29.843Z,1005.8964446490625
2024-03-09T14:27:40.823Z,1005.8367627390356
2024-03-09T14:31:02.193Z,1005.8472420015297
2024-03-09T14:34:24.640Z,1005.8451165333431
2024-03-09T14:37:47.477Z,1005.8093639466337
2024-03-09T14:41:11.976Z,1005.8388137924477
2024-03-09T14:44:34.457Z,1005.8374956424702
2024-03-09T14:47:56.794Z,1005.8113485923002
2024-03-09T14:55:56.994Z,1005.7226242588904
2024-03-09T14:59:22.530Z,1005.680156239139
2024-03-09T15:11:26.533Z,1005.7303263048402
2024-03-09T15:14:51.282Z,1005.6990889967993
2024-03-09T15:18:14.658Z,1005.6668065164255
2024-03-09T15:21:39.610Z,1005.6522049991072
2024-03-09T15:25:05.455Z,1005.677641888352
2024-03-09T15:28:28.685Z,1005.6543976304331
2024-03-09T15:33:07.751Z,1005.7131564647319
2024-03-09T15:39:19.785Z,1005.7226293577182
2024-03-09T15:42:43.240Z,1005.7176608913276
2024-03-09T15:46:17.802Z,1005.7882736696113
2024-03-09T15:49:40.934Z,1005.7474928956518
2024-03-09T15:53:03.976Z,1005.716657677496
2024-03-09T15:59:07.278Z,1005.7001474667522
2024-03-09T16:04:34.016Z,1005.702264304472
2024-03-09T16:10:17.318Z,1005.695373995658
2024-03-09T16:13:40.501Z,1005.673463318365
2024-03-09T16:17:03.161Z,1005.6802156129461
2024-03-09T16:20:26.082Z,1005.6683580067471
2024-03-09T16:23:49.157Z,1005.7058692719545
2024-03-09T16:29:23.964Z,1005.6864630885691
2024-03-09T16:32:46.978Z,1005.6951621463069
2024-03-09T16:36:12.101Z,1005.6942848496162
2024-03-09T16:40:04.933Z,1005.7043016226058
2024-03-09T16:43:32.405Z,1005.6568351946584
2024-03-09T16:46:57.625Z,1005.6356220435725
2024-03-09T16:50:21.909Z,1005.5959065654927
2024-03-09T16:53:46.760Z,1005.5547771559499
2024-03-09T16:57:09.609Z,1005.5390054604085
2024-03-09T17:00:32.724Z,1005.6222798859602
2024-03-09T17:03:57.288Z,1005.7126040155638
2024-03-09T17:07:19.295Z,1005.7049977630777
2024-03-09T17:13:48.688Z,1005.7232882771353
2024-03-09T17:17:10.709Z,1005.6848999964948
2024-03-09T17:25:02.922Z,1005.6794902728966
2024-03-09T17:31:30.866Z,1005.623745544035
2024-03-09T17:34:55.176Z,1005.589572995412
2024-03-09T17:38:18.680Z,1005.4976165950794
2024-03-09T17:41:40.083Z,1005.4861809184275
2024-03-09T17:45:00.546Z,1005.5077200591954
2024-03-09T17:57:03.245Z,1005.5962396834365
2024-03-09T18:18:45.838Z,1005.5828157760234
2024-03-09T18:22:07.128Z,1005.554208398233
2024-03-09T18:25:27.706Z,1005.5698631492644
2024-03-09T18:28:48.740Z,1005.5920319737737
2024-03-09T18:34:23.113Z,1005.6380868860609
2024-03-09T18:37:43.517Z,1005.6301703672032
2024-03-09T18:45:25.535Z,1005.6169072772697
2024-03-09T18:48:46.289Z,1005.6560076249053
2024-03-09T18:52:06.636Z,1005.7114629621001
2024-03-09T18:55:27.173Z,1005.7409250862719
2024-03-09T18:58:47.688Z,1005.7699230332947
2024-03-09T19:02:07.830Z,1005.8099897215812
2024-03-09T19:08:11.791Z,1005.7846086068987
2024-03-09T19:11:31.847Z,1005.7979899766536
2024-03-09T19:14:51.709Z,1005.8179518057273
2024-03-09T19:29:59.088Z,1005.8418848782347
2024-03-09T19:33:19.953Z,1005.8413419961971
2024-03-09T19:36:40.051Z,1005.8322819199116
2024-03-09T19:40:01.126Z,1005.8314850843152
2024-03-09T19:43:22.421Z,1005.8286010040312
2024-03-09T19:46:42.684Z,1005.8051883354258
2024-03-09T19:50:03.405Z,1005.7766758248993
2024-03-09T19:53:23.474Z,1005.7790021945999
2024-03-09T19:56:44.109Z,1005.7617535052699
2024-03-09T20:00:04.446Z,1005.7225545298256
2024-03-09T20:03:25.465Z,1005.730113180196
2024-03-09T20:06:45.819Z,1005.7553801855128
2024-03-09T20:15:44.297Z,1005.6189566216718
2024-03-09T20:19:31.604Z,1005.6502226878844
2024-03-09T20:22:52.829Z,1005.5903983828612
2024-03-09T20:27:36.031Z,1005.5700279486529
2024-03-09T20:30:56.454Z,1005.588457856024
2024-03-09T20:34:47.429Z,1005.565950812569
2024-03-09T20:38:09.525Z,1005.5622726464908
2024-03-09T20:43:53.024Z,1005.5328424697601
2024-03-09T20:47:12.898Z,1005.5058289507817
2024-03-09T20:50:34.095Z,1005.502682828898
2024-03-09T20:53:54.516Z,1005.5132353748941
2024-03-09T20:57:16.537Z,1005.5205538159279
2024-03-09T21:00:37.987Z,1005.5141026398629
2024-03-09T21:05:50.949Z,1005.4160757407614
2024-03-09T21:37:51.603Z,1005.2569540588626
2024-03-09T21:41:11.783Z,1005.2179795609549
2024-03-09T21:45:22.861Z,1005.1559630015378
2024-03-09T21:48:43.255Z,1005.1354339616528
2024-03-09T21:52:04.570Z,1005.1623875292776
2024-03-09T21:57:02.009Z,1005.1302321251494
2024-03-09T22:00:24.910Z,1005.1139265691415
2024-03-09T22:03:46.139Z,1005.1068668557937
2024-03-09T22:07:06.007Z,1005.1014769120351
2024-03-09T22:13:32.701Z,1005.0174351008889
2024-03-09T22:16:53.477Z,1004.961450367286
2024-03-09T22:20:13.834Z,1004.9340637204292
2024-03-09T22:23:35.294Z,1004.9276538269779
2024-03-09T22:26:56.253Z,1004.9095616317235
2024-03-09T22:30:18.196Z,1004.9078395960327
2024-03-09T22:33:39.978Z,1004.8937506597648
2024-03-09T22:37:01.546Z,1004.9049734339536
2024-03-09T22:40:22.417Z,1004.9019255928508
2024-03-09T22:43:43.855Z,1004.9109879280408
2024-03-09T22:47:04.929Z,1004.9387452793286
2024-03-09T22:50:35.014Z,1004.9375943730049
2024-03-09T22:57:01.035Z,1004.8784491117956
2024-03-09T23:00:35.855Z,1004.8734399354979
2024-03-09T23:03:56.479Z,1004.8574619413561
2024-03-09T23:07:16.409Z,1004.8471665668748
2024-03-09T23:11:13.833Z,1004.8582765534009
2024-03-09T23:14:34.961Z,1004.8697005263635
2024-03-09T23:17:56.115Z,1004.857116483029
2024-03-09T23:25:31.306Z,1004.7869434283463
2024-03-09T23:31:18.219Z,1004.7711185581653
2024-03-09T23:34:38.877Z,1004.7759229930041
2024-03-09T23:37:58.998Z,1004.7693557689203
2024-03-09T23:41:21.597Z,1004.7368191104537
2024-03-09T23:48:16.506Z,1004.5673694422845
2024-03-09T23:53:22.643Z,1004.5856001905264
2024-03-09T23:56:43.340Z,1004.6296252321347
